SRV31A LPBJ-GMMN
Flight info
| Callsign | SRV31A |
|---|---|
| Flight time | N/A |
| Altitude | 37000 |
| Route | XAPAS DCT GIMAL DCT AMSEL UR722 LAKAM |
| Aircraft | A388/J-SADE2E3FGHIJ3J4J5M1RWXY/LB1D1 |
Departure
| Time | 2026-04-28 16:52 |
|---|---|
| Airport | Beja Airport / Airbase (LPBJ) |
Arrival
| Time | N/A |
|---|---|
| Airport | Mohammed V International Airport (GMMN) |
| Time | Latitude | Longitude | Altitude | Speed | Heading |
|---|---|---|---|---|---|
| 2026-04-28 16:32 | 38.06559 | -7.93998 | 636 ft | 0 kts | 291° |
| 2026-04-28 16:33 | 38.06564 | -7.93999 | 636 ft | 0 kts | 232° |
| 2026-04-28 16:42 | 38.06561 | -7.94003 | 636 ft | 1 kts | 226° |
| 2026-04-28 16:42 | 38.06550 | -7.94009 | 636 ft | 4 kts | 174° |
| 2026-04-28 16:43 | 38.06516 | -7.93924 | 636 ft | 25 kts | 117° |
| 2026-04-28 16:43 | 38.06413 | -7.93732 | 636 ft | 25 kts | 124° |
| 2026-04-28 16:43 | 38.06370 | -7.93537 | 635 ft | 20 kts | 95° |
| 2026-04-28 16:43 | 38.06358 | -7.93354 | 637 ft | 22 kts | 95° |
| 2026-04-28 16:44 | 38.06379 | -7.93207 | 639 ft | 14 kts | 21° |
| 2026-04-28 16:44 | 38.06488 | -7.93177 | 638 ft | 18 kts | 7° |
| 2026-04-28 16:44 | 38.06627 | -7.93157 | 638 ft | 22 kts | 5° |
| 2026-04-28 16:44 | 38.06789 | -7.93138 | 636 ft | 25 kts | 6° |
| 2026-04-28 16:45 | 38.06967 | -7.93114 | 634 ft | 27 kts | 6° |
| 2026-04-28 16:45 | 38.07157 | -7.93088 | 633 ft | 28 kts | 6° |
| 2026-04-28 16:45 | 38.07350 | -7.93062 | 634 ft | 28 kts | 6° |
| 2026-04-28 16:45 | 38.07545 | -7.93037 | 635 ft | 28 kts | 6° |
| 2026-04-28 16:46 | 38.07743 | -7.93011 | 637 ft | 28 kts | 6° |
| 2026-04-28 16:46 | 38.07940 | -7.92985 | 636 ft | 29 kts | 6° |
| 2026-04-28 16:46 | 38.08145 | -7.92959 | 634 ft | 30 kts | 6° |
| 2026-04-28 16:46 | 38.08355 | -7.92932 | 631 ft | 31 kts | 5° |
| 2026-04-28 16:47 | 38.08569 | -7.92905 | 630 ft | 31 kts | 5° |
| 2026-04-28 16:47 | 38.08779 | -7.92879 | 631 ft | 30 kts | 6° |
| 2026-04-28 16:47 | 38.08987 | -7.92852 | 632 ft | 30 kts | 6° |
| 2026-04-28 16:47 | 38.09189 | -7.92825 | 634 ft | 22 kts | 6° |
| 2026-04-28 16:48 | 38.09216 | -7.92821 | 634 ft | 5 kts | 6° |
| 2026-04-28 16:48 | 38.09279 | -7.92813 | 634 ft | 13 kts | 6° |
| 2026-04-28 16:48 | 38.09366 | -7.92808 | 632 ft | 11 kts | 335° |
| 2026-04-28 16:48 | 38.09400 | -7.92878 | 632 ft | 0 kts | 275° |
| 2026-04-28 16:49 | 38.09402 | -7.92901 | 633 ft | 6 kts | 275° |
| 2026-04-28 16:49 | 38.09407 | -7.92961 | 634 ft | 5 kts | 275° |
| 2026-04-28 16:49 | 38.09399 | -7.93012 | 634 ft | 7 kts | 234° |
| 2026-04-28 16:49 | 38.09354 | -7.93051 | 634 ft | 10 kts | 200° |
| 2026-04-28 16:50 | 38.09312 | -7.93057 | 634 ft | 2 kts | 169° |
| 2026-04-28 16:50 | 38.09298 | -7.93056 | 634 ft | 2 kts | 186° |
| 2026-04-28 16:51 | 38.09283 | -7.93058 | 634 ft | 18 kts | 186° |
| 2026-04-28 16:52 | 38.08818 | -7.93121 | 631 ft | 112 kts | 185° |
| 2026-04-28 16:52 | 38.07824 | -7.93251 | 696 ft | 164 kts | 186° |
| 2026-04-28 16:52 | 38.06642 | -7.93404 | 1121 ft | 177 kts | 186° |
| 2026-04-28 16:52 | 38.05406 | -7.93570 | 1939 ft | 174 kts | 187° |
| 2026-04-28 16:53 | 38.04206 | -7.93732 | 2853 ft | 178 kts | 186° |
| 2026-04-28 16:53 | 38.02919 | -7.93905 | 3425 ft | 199 kts | 186° |
| 2026-04-28 16:53 | 38.01452 | -7.93946 | 4135 ft | 221 kts | 175° |
| 2026-04-28 16:53 | 37.99844 | -7.93699 | 4846 ft | 243 kts | 174° |
| 2026-04-28 16:54 | 37.98079 | -7.93496 | 5496 ft | 265 kts | 177° |
| 2026-04-28 16:54 | 37.96210 | -7.93434 | 6292 ft | 276 kts | 180° |
| 2026-04-28 16:54 | 37.94253 | -7.93469 | 7247 ft | 280 kts | 182° |
| 2026-04-28 16:54 | 37.92951 | -7.93518 | 7842 ft | 283 kts | 182° |
| 2026-04-28 16:55 | 37.90310 | -7.93640 | 8987 ft | 289 kts | 182° |
| 2026-04-28 16:55 | 37.88280 | -7.93736 | 9821 ft | 294 kts | 182° |
| 2026-04-28 16:55 | 37.86203 | -7.93832 | 10456 ft | 306 kts | 182° |
| 2026-04-28 16:55 | 37.84001 | -7.93931 | 10669 ft | 328 kts | 182° |
| 2026-04-28 16:56 | 37.81639 | -7.94036 | 10893 ft | 347 kts | 182° |
| 2026-04-28 16:56 | 37.79193 | -7.94116 | 11472 ft | 353 kts | 180° |
| 2026-04-28 16:56 | 37.76758 | -7.94053 | 12117 ft | 358 kts | 179° |
| 2026-04-28 16:56 | 37.74232 | -7.93965 | 12768 ft | 362 kts | 179° |
| 2026-04-28 16:57 | 37.71696 | -7.93875 | 13394 ft | 366 kts | 179° |
| 2026-04-28 16:57 | 37.69166 | -7.93788 | 13995 ft | 370 kts | 179° |
| 2026-04-28 16:57 | 37.66567 | -7.93702 | 14585 ft | 374 kts | 179° |
| 2026-04-28 16:57 | 37.63951 | -7.93616 | 15159 ft | 377 kts | 179° |
| 2026-04-28 16:58 | 37.61309 | -7.93531 | 15713 ft | 381 kts | 179° |
| 2026-04-28 16:58 | 37.58640 | -7.93445 | 16248 ft | 385 kts | 179° |
| 2026-04-28 16:58 | 37.55976 | -7.93359 | 16761 ft | 388 kts | 179° |
| 2026-04-28 16:58 | 37.53253 | -7.93272 | 17261 ft | 392 kts | 179° |
| 2026-04-28 16:59 | 37.50507 | -7.93183 | 17739 ft | 395 kts | 179° |
| 2026-04-28 16:59 | 37.47769 | -7.93095 | 18188 ft | 399 kts | 179° |
| 2026-04-28 16:59 | 37.44971 | -7.93005 | 18621 ft | 402 kts | 179° |
| 2026-04-28 16:59 | 37.42164 | -7.92915 | 19033 ft | 405 kts | 179° |
| 2026-04-28 17:00 | 37.39336 | -7.92824 | 19427 ft | 408 kts | 179° |
| 2026-04-28 17:00 | 37.36515 | -7.92734 | 19797 ft | 410 kts | 179° |
| 2026-04-28 17:00 | 37.33643 | -7.92642 | 20157 ft | 413 kts | 179° |
| 2026-04-28 17:00 | 37.30764 | -7.92550 | 20501 ft | 416 kts | 179° |
| 2026-04-28 17:01 | 37.27875 | -7.92458 | 20829 ft | 418 kts | 179° |
| 2026-04-28 17:01 | 37.24920 | -7.92363 | 21151 ft | 421 kts | 179° |
| 2026-04-28 17:01 | 37.22020 | -7.92270 | 21449 ft | 423 kts | 179° |
| 2026-04-28 17:01 | 37.19056 | -7.92176 | 21742 ft | 425 kts | 179° |
| 2026-04-28 17:02 | 37.16079 | -7.92081 | 22024 ft | 428 kts | 179° |
| 2026-04-28 17:02 | 37.14104 | -7.92018 | 22204 ft | 429 kts | 179° |
| 2026-04-28 17:02 | 37.10095 | -7.91890 | 22549 ft | 432 kts | 179° |
| 2026-04-28 17:02 | 37.07109 | -7.91795 | 22793 ft | 434 kts | 179° |
| 2026-04-28 17:03 | 37.01042 | -7.91602 | 23256 ft | 437 kts | 179° |
| 2026-04-28 17:03 | 36.97991 | -7.91505 | 23472 ft | 439 kts | 179° |
| 2026-04-28 17:03 | 36.94921 | -7.91408 | 23681 ft | 441 kts | 179° |
| 2026-04-28 17:04 | 36.88764 | -7.91213 | 24071 ft | 444 kts | 179° |
| 2026-04-28 17:04 | 36.85699 | -7.91116 | 24253 ft | 445 kts | 179° |
| 2026-04-28 17:05 | 36.79467 | -7.90919 | 24600 ft | 448 kts | 179° |
| 2026-04-28 17:05 | 36.76334 | -7.90820 | 24764 ft | 450 kts | 179° |
| 2026-04-28 17:05 | 36.73199 | -7.90721 | 24921 ft | 451 kts | 179° |
| 2026-04-28 17:06 | 36.66953 | -7.90524 | 25215 ft | 454 kts | 179° |
| 2026-04-28 17:06 | 36.63750 | -7.90424 | 25358 ft | 455 kts | 179° |
| 2026-04-28 17:06 | 36.57434 | -7.90225 | 25627 ft | 457 kts | 179° |
| 2026-04-28 17:07 | 36.54238 | -7.90125 | 25756 ft | 458 kts | 179° |
| 2026-04-28 17:07 | 36.51047 | -7.90025 | 25881 ft | 459 kts | 179° |
| 2026-04-28 17:07 | 36.47839 | -7.89924 | 26004 ft | 460 kts | 179° |
| 2026-04-28 17:07 | 36.44642 | -7.89824 | 26122 ft | 461 kts | 179° |
| 2026-04-28 17:08 | 36.41462 | -7.89725 | 26236 ft | 462 kts | 179° |
| 2026-04-28 17:08 | 36.38230 | -7.89624 | 26348 ft | 463 kts | 179° |
| 2026-04-28 17:08 | 36.34998 | -7.89523 | 26456 ft | 464 kts | 179° |
| 2026-04-28 17:08 | 36.31760 | -7.89422 | 26562 ft | 465 kts | 179° |
| 2026-04-28 17:09 | 36.28524 | -7.89321 | 26666 ft | 466 kts | 179° |
| 2026-04-28 17:09 | 36.25274 | -7.89220 | 26766 ft | 467 kts | 179° |
| 2026-04-28 17:09 | 36.22020 | -7.89118 | 26863 ft | 468 kts | 179° |
| 2026-04-28 17:09 | 36.18800 | -7.89018 | 26956 ft | 468 kts | 179° |
| 2026-04-28 17:10 | 36.15537 | -7.88917 | 27047 ft | 469 kts | 179° |
| 2026-04-28 17:10 | 36.12263 | -7.88815 | 27136 ft | 470 kts | 179° |
| 2026-04-28 17:10 | 36.08987 | -7.88714 | 27223 ft | 471 kts | 179° |
| 2026-04-28 17:10 | 36.05736 | -7.88613 | 27307 ft | 472 kts | 179° |
| 2026-04-28 17:11 | 36.02441 | -7.88511 | 27389 ft | 472 kts | 179° |
| 2026-04-28 17:11 | 35.99144 | -7.88409 | 27468 ft | 473 kts | 179° |
| 2026-04-28 17:11 | 35.95878 | -7.88307 | 27545 ft | 474 kts | 178° |
| 2026-04-28 17:11 | 35.92583 | -7.88086 | 27614 ft | 474 kts | 176° |
| 2026-04-28 17:12 | 35.89291 | -7.87756 | 27686 ft | 475 kts | 175° |
| 2026-04-28 17:12 | 35.85991 | -7.87412 | 27757 ft | 476 kts | 175° |
| 2026-04-28 17:12 | 35.82691 | -7.87082 | 27823 ft | 476 kts | 175° |
| 2026-04-28 17:12 | 35.79374 | -7.86766 | 27893 ft | 477 kts | 176° |
| 2026-04-28 17:13 | 35.76059 | -7.86460 | 27960 ft | 477 kts | 176° |
| 2026-04-28 17:13 | 35.72738 | -7.86158 | 28023 ft | 478 kts | 176° |
| 2026-04-28 17:13 | 35.66089 | -7.85558 | 28145 ft | 479 kts | 176° |
| 2026-04-28 17:14 | 35.59451 | -7.84959 | 28254 ft | 480 kts | 176° |
| 2026-04-28 17:14 | 35.52767 | -7.84356 | 28372 ft | 481 kts | 176° |
| 2026-04-28 17:15 | 35.46116 | -7.83758 | 28473 ft | 482 kts | 176° |
| 2026-04-28 17:15 | 35.39415 | -7.83158 | 28568 ft | 483 kts | 176° |
| 2026-04-28 17:16 | 35.32692 | -7.82591 | 28658 ft | 484 kts | 176° |
| 2026-04-28 17:16 | 35.25991 | -7.82031 | 28747 ft | 485 kts | 176° |
| 2026-04-28 17:17 | 35.19256 | -7.81464 | 28829 ft | 485 kts | 176° |
| 2026-04-28 17:17 | 35.12501 | -7.80896 | 28906 ft | 486 kts | 176° |
| 2026-04-28 17:18 | 35.05779 | -7.80331 | 28977 ft | 487 kts | 176° |
| 2026-04-28 17:18 | 34.99008 | -7.79764 | 29000 ft | 488 kts | 176° |
| 2026-04-28 17:19 | 34.92233 | -7.79197 | 29000 ft | 487 kts | 176° |
| 2026-04-28 17:19 | 34.85506 | -7.78635 | 29000 ft | 487 kts | 176° |
| 2026-04-28 17:20 | 34.79880 | -7.78165 | 28956 ft | 486 kts | 176° |
| 2026-04-28 17:20 | 34.75386 | -7.77791 | 28642 ft | 482 kts | 176° |
| 2026-04-28 17:20 | 34.73164 | -7.77606 | 28477 ft | 480 kts | 176° |
| 2026-04-28 17:21 | 34.68749 | -7.77285 | 28145 ft | 477 kts | 177° |
| 2026-04-28 17:21 | 34.65467 | -7.77065 | 28001 ft | 466 kts | 177° |
| 2026-04-28 17:21 | 34.63308 | -7.76920 | 27905 ft | 455 kts | 177° |
| 2026-04-28 17:22 | 34.57217 | -7.76503 | 27621 ft | 424 kts | 177° |
| 2026-04-28 17:22 | 34.54318 | -7.76302 | 27472 ft | 410 kts | 177° |
| 2026-04-28 17:22 | 34.51498 | -7.76106 | 27155 ft | 402 kts | 177° |